createdAt,value
2022-10-15T00:00:05.609Z,15.50
2022-10-15T00:00:17.391Z,15.50
2022-10-15T00:00:29.143Z,15.50
2022-10-15T00:00:41.607Z,15.50
2022-10-15T00:00:53.343Z,15.50
2022-10-15T00:01:09.373Z,15.50
2022-10-15T00:01:21.257Z,15.50
2022-10-15T00:01:33.102Z,15.50
2022-10-15T00:01:44.855Z,15.50
2022-10-15T00:01:56.591Z,15.40
2022-10-15T00:02:08.306Z,15.40
2022-10-15T00:02:19.974Z,15.40
2022-10-15T00:02:31.761Z,15.40
2022-10-15T00:02:43.432Z,15.40
2022-10-15T00:02:55.073Z,15.40
2022-10-15T00:03:06.843Z,15.40
2022-10-15T00:03:18.540Z,15.40
2022-10-15T00:03:30.274Z,15.40
2022-10-15T00:03:42.926Z,15.40
2022-10-15T00:03:54.673Z,15.40
2022-10-15T00:04:06.476Z,15.40
2022-10-15T00:04:18.197Z,15.40
2022-10-15T00:04:31.088Z,15.40
2022-10-15T00:04:42.775Z,15.50
2022-10-15T00:04:54.522Z,15.50
2022-10-15T00:05:06.516Z,15.50
2022-10-15T00:05:18.285Z,15.50
2022-10-15T00:05:30.067Z,15.40
2022-10-15T00:05:41.860Z,15.50
2022-10-15T00:05:53.600Z,15.40
2022-10-15T00:06:07.251Z,15.40
2022-10-15T00:06:20.157Z,15.40
2022-10-15T00:06:32.375Z,15.40
2022-10-15T00:06:44.044Z,15.40
2022-10-15T00:06:55.732Z,15.40
2022-10-15T00:07:07.452Z,15.40
2022-10-15T00:07:19.144Z,15.40
2022-10-15T00:07:30.835Z,15.40
2022-10-15T00:07:42.550Z,15.40
2022-10-15T00:07:54.618Z,15.40
2022-10-15T00:08:06.740Z,15.40
2022-10-15T00:08:18.532Z,15.40
2022-10-15T00:08:30.228Z,15.40
2022-10-15T00:08:42.046Z,15.40
2022-10-15T00:08:53.829Z,15.40
2022-10-15T00:09:05.559Z,15.40
2022-10-15T00:09:17.395Z,15.40
2022-10-15T00:09:29.045Z,15.40
2022-10-15T00:09:40.759Z,15.40
2022-10-15T00:09:52.525Z,15.30
2022-10-15T00:10:04.522Z,15.40
2022-10-15T00:10:16.498Z,15.40
2022-10-15T00:10:28.283Z,15.40
2022-10-15T00:10:40.048Z,15.40
2022-10-15T00:10:51.744Z,15.40
2022-10-15T00:11:08.537Z,15.40
2022-10-15T00:11:26.220Z,15.40
2022-10-15T00:11:39.859Z,15.40
2022-10-15T00:11:51.730Z,15.40
2022-10-15T00:12:03.531Z,15.40
2022-10-15T00:12:15.441Z,15.40
2022-10-15T00:12:27.169Z,15.40
2022-10-15T00:12:38.962Z,15.40
2022-10-15T00:12:51.086Z,15.40
2022-10-15T00:13:14.946Z,15.40
2022-10-15T00:13:26.644Z,15.40
2022-10-15T00:13:38.503Z,15.40
2022-10-15T00:13:50.423Z,15.40
2022-10-15T00:14:02.155Z,15.40
2022-10-15T00:14:13.830Z,15.40
2022-10-15T00:14:25.499Z,15.40
2022-10-15T00:14:37.246Z,15.40
2022-10-15T00:14:48.892Z,15.40
2022-10-15T00:15:00.563Z,15.40
2022-10-15T00:15:12.326Z,15.40
2022-10-15T00:15:24.015Z,15.40
2022-10-15T00:15:37.213Z,15.40
2022-10-15T00:15:48.953Z,15.40
2022-10-15T00:16:01.059Z,15.40
2022-10-15T00:16:14.513Z,15.40
2022-10-15T00:16:27.869Z,15.40
2022-10-15T00:16:39.650Z,15.40
2022-10-15T00:16:51.387Z,15.40
2022-10-15T00:17:03.136Z,15.40
2022-10-15T00:17:14.962Z,15.40
2022-10-15T00:17:26.747Z,15.40
2022-10-15T00:17:38.503Z,15.40
2022-10-15T00:17:50.252Z,15.40
2022-10-15T00:18:01.980Z,15.40
2022-10-15T00:18:13.690Z,15.40
2022-10-15T00:18:25.412Z,15.40
2022-10-15T00:18:37.180Z,15.40
2022-10-15T00:18:49.019Z,15.40
2022-10-15T00:19:00.715Z,15.40
2022-10-15T00:19:12.736Z,15.40
2022-10-15T00:19:24.445Z,15.40
2022-10-15T00:19:36.201Z,15.40
2022-10-15T00:19:47.878Z,15.40
2022-10-15T00:19:59.570Z,15.40
2022-10-15T00:20:11.570Z,15.40
2022-10-15T00:20:23.279Z,15.40
2022-10-15T00:20:35.037Z,15.40
2022-10-15T00:20:46.727Z,15.40
2022-10-15T00:20:58.427Z,15.40
2022-10-15T00:21:11.685Z,15.40
2022-10-15T00:21:23.423Z,15.40
2022-10-15T00:21:35.100Z,15.40
2022-10-15T00:21:46.799Z,15.40
2022-10-15T00:21:58.794Z,15.40
2022-10-15T00:22:10.552Z,15.40
2022-10-15T00:22:23.522Z,15.40
2022-10-15T00:22:35.561Z,15.40
2022-10-15T00:22:47.247Z,15.40
2022-10-15T00:22:58.931Z,15.40
2022-10-15T00:23:10.692Z,15.40
2022-10-15T00:23:22.366Z,15.40
2022-10-15T00:23:34.135Z,15.40
2022-10-15T00:23:46.442Z,15.40
2022-10-15T00:23:58.226Z,15.40
2022-10-15T00:24:10.011Z,15.40
2022-10-15T00:24:21.655Z,15.40
2022-10-15T00:24:33.345Z,15.40
2022-10-15T00:24:45.059Z,15.40
2022-10-15T00:24:56.846Z,15.40
2022-10-15T00:25:08.959Z,15.40
2022-10-15T00:25:20.646Z,15.40
2022-10-15T00:25:32.309Z,15.40
2022-10-15T00:25:43.953Z,15.40
2022-10-15T00:26:12.031Z,15.40
2022-10-15T00:26:25.325Z,15.30
2022-10-15T00:26:37.127Z,15.40
2022-10-15T00:26:48.854Z,15.30
2022-10-15T00:27:00.559Z,15.30
2022-10-15T00:27:12.226Z,15.30
2022-10-15T00:27:23.966Z,15.30
2022-10-15T00:27:35.869Z,15.30
2022-10-15T00:27:47.590Z,15.30
2022-10-15T00:27:59.286Z,15.30
2022-10-15T00:28:11.035Z,15.30
2022-10-15T00:28:22.811Z,15.30
2022-10-15T00:28:34.699Z,15.30
2022-10-15T00:28:47.213Z,15.30
2022-10-15T00:29:00.823Z,15.30
2022-10-15T00:29:12.578Z,15.30
2022-10-15T00:29:24.260Z,15.30
2022-10-15T00:29:35.921Z,15.30
2022-10-15T00:29:47.603Z,15.30
2022-10-15T00:30:00.432Z,15.30
2022-10-15T00:30:12.684Z,15.30
2022-10-15T00:30:24.414Z,15.30
2022-10-15T00:30:36.270Z,15.30
2022-10-15T00:30:47.975Z,15.30
2022-10-15T00:31:07.348Z,15.30
2022-10-15T00:31:20.872Z,15.30
2022-10-15T00:31:32.723Z,15.30
2022-10-15T00:31:44.612Z,15.30
2022-10-15T00:31:56.414Z,15.30
2022-10-15T00:32:08.276Z,15.30
2022-10-15T00:32:20.119Z,15.30
2022-10-15T00:32:31.937Z,15.30
2022-10-15T00:32:43.703Z,15.30
2022-10-15T00:32:55.418Z,15.30
2022-10-15T00:33:07.066Z,15.30
2022-10-15T00:33:18.794Z,15.20
2022-10-15T00:33:30.522Z,15.30
2022-10-15T00:33:43.115Z,15.20
2022-10-15T00:33:57.158Z,15.20
2022-10-15T00:34:09.294Z,15.30
2022-10-15T00:34:21.003Z,15.20
2022-10-15T00:34:32.793Z,15.20
2022-10-15T00:34:44.487Z,15.20
2022-10-15T00:34:56.305Z,15.20
2022-10-15T00:35:08.137Z,15.20
2022-10-15T00:35:19.838Z,15.30
2022-10-15T00:35:31.563Z,15.30
2022-10-15T00:35:43.226Z,15.30
2022-10-15T00:35:59.317Z,15.20
2022-10-15T00:36:13.127Z,15.20
2022-10-15T00:36:26.476Z,15.20
2022-10-15T00:36:38.194Z,15.20
2022-10-15T00:36:50.353Z,15.20
2022-10-15T00:37:02.024Z,15.20
2022-10-15T00:37:13.710Z,15.20
2022-10-15T00:37:25.447Z,15.20
2022-10-15T00:37:37.177Z,15.20
2022-10-15T00:37:48.885Z,15.20
2022-10-15T00:38:00.542Z,15.20
2022-10-15T00:38:12.327Z,15.20
2022-10-15T00:38:24.124Z,15.20
2022-10-15T00:38:35.820Z,15.20
2022-10-15T00:38:47.853Z,15.20
2022-10-15T00:38:59.679Z,15.20
2022-10-15T00:39:11.413Z,15.20
2022-10-15T00:39:23.168Z,15.20
2022-10-15T00:39:35.123Z,15.20
2022-10-15T00:39:47.055Z,15.20
2022-10-15T00:39:58.842Z,15.20
2022-10-15T00:40:12.135Z,15.10
2022-10-15T00:40:23.905Z,15.20
2022-10-15T00:40:35.632Z,15.10
2022-10-15T00:40:47.341Z,15.10
2022-10-15T00:40:59.126Z,15.10
2022-10-15T00:41:16.925Z,15.10
2022-10-15T00:41:33.029Z,15.10
2022-10-15T00:41:45.296Z,15.10
2022-10-15T00:41:57.033Z,15.20
2022-10-15T00:42:10.599Z,15.20
2022-10-15T00:42:22.577Z,15.10
2022-10-15T00:42:34.459Z,15.10
2022-10-15T00:42:46.226Z,15.10
2022-10-15T00:42:58.084Z,15.10
2022-10-15T00:43:11.241Z,15.10
2022-10-15T00:43:42.157Z,15.10
2022-10-15T00:43:54.679Z,15.10
2022-10-15T00:44:21.663Z,15.10
2022-10-15T00:45:03.478Z,15.10
2022-10-15T00:45:15.431Z,15.20
2022-10-15T00:45:27.113Z,15.10
2022-10-15T00:45:38.809Z,15.10
2022-10-15T00:45:50.546Z,15.10
2022-10-15T00:46:02.322Z,15.10
2022-10-15T00:46:31.267Z,15.10
2022-10-15T00:46:43.036Z,15.10
2022-10-15T00:46:57.614Z,15.10
2022-10-15T00:47:21.278Z,15.10
2022-10-15T00:47:39.396Z,15.10
2022-10-15T00:47:51.178Z,15.10
2022-10-15T00:48:02.925Z,15.10
2022-10-15T00:48:14.652Z,15.10
2022-10-15T00:48:26.321Z,15.10
2022-10-15T00:48:38.029Z,15.10
2022-10-15T00:48:51.707Z,15.10
2022-10-15T00:49:24.266Z,15.10
2022-10-15T00:49:37.976Z,15.10
2022-10-15T00:50:04.114Z,15.10
2022-10-15T00:50:19.344Z,15.10
2022-10-15T00:50:31.034Z,15.10
2022-10-15T00:50:42.700Z,15.10
2022-10-15T00:50:54.520Z,15.10
2022-10-15T00:51:06.285Z,15.10
2022-10-15T00:51:18.129Z,15.10
2022-10-15T00:51:34.986Z,15.10
2022-10-15T00:51:50.063Z,15.00
2022-10-15T00:52:06.967Z,15.10
2022-10-15T00:52:50.648Z,15.10
2022-10-15T00:53:03.401Z,15.10
2022-10-15T00:53:15.234Z,15.10
2022-10-15T00:53:26.995Z,15.10
2022-10-15T00:53:38.747Z,15.10
2022-10-15T00:53:50.517Z,15.00
2022-10-15T00:54:02.275Z,15.00
2022-10-15T00:54:14.021Z,15.00
2022-10-15T00:54:26.850Z,15.10
2022-10-15T00:54:40.983Z,15.00
2022-10-15T00:55:16.126Z,15.10
2022-10-15T00:55:33.097Z,15.10
2022-10-15T00:55:44.823Z,15.10
2022-10-15T00:55:56.552Z,15.00
2022-10-15T00:56:08.281Z,15.00
2022-10-15T00:56:21.049Z,15.10
2022-10-15T00:56:32.803Z,15.10
2022-10-15T00:56:44.772Z,15.00
2022-10-15T00:56:56.871Z,15.10
2022-10-15T00:57:11.109Z,15.00
2022-10-15T00:57:22.819Z,15.00
2022-10-15T00:57:34.677Z,15.00
2022-10-15T00:57:47.990Z,15.00
2022-10-15T00:58:02.292Z,15.00
2022-10-15T00:58:15.331Z,15.00
2022-10-15T00:58:28.415Z,15.00
2022-10-15T00:58:40.170Z,15.00
2022-10-15T00:58:51.844Z,15.00
2022-10-15T00:59:03.644Z,15.00
2022-10-15T00:59:15.378Z,15.00
2022-10-15T00:59:27.407Z,15.00
2022-10-15T00:59:42.149Z,15.00
2022-10-15T00:59:56.813Z,15.00
2022-10-15T01:00:12.153Z,15.00
2022-10-15T01:00:23.822Z,15.00
2022-10-15T01:00:35.563Z,15.00
2022-10-15T01:00:47.532Z,15.00
2022-10-15T01:00:59.361Z,15.00
2022-10-15T01:01:11.158Z,15.00
2022-10-15T01:01:23.419Z,15.00
2022-10-15T01:01:35.246Z,15.00
2022-10-15T01:01:46.980Z,15.10
2022-10-15T01:02:00.020Z,15.10
2022-10-15T01:02:11.819Z,15.10
2022-10-15T01:02:23.797Z,15.10
2022-10-15T01:02:35.757Z,15.10
2022-10-15T01:02:47.504Z,15.10
2022-10-15T01:02:59.190Z,15.10
2022-10-15T01:03:12.666Z,15.10
2022-10-15T01:03:24.578Z,15.10
2022-10-15T01:03:36.461Z,15.10
2022-10-15T01:03:48.339Z,15.10
2022-10-15T01:03:59.983Z,15.10
2022-10-15T01:04:11.711Z,15.10
2022-10-15T01:04:23.438Z,15.10
2022-10-15T01:04:35.162Z,15.10
2022-10-15T01:04:46.985Z,15.00
2022-10-15T01:04:58.774Z,15.00
2022-10-15T01:05:11.010Z,15.10
2022-10-15T01:05:22.710Z,15.00
2022-10-15T01:05:35.081Z,15.00
2022-10-15T01:05:47.868Z,15.00
2022-10-15T01:05:59.635Z,15.00
2022-10-15T01:06:11.346Z,15.00
2022-10-15T01:06:23.373Z,15.00
2022-10-15T01:06:35.231Z,15.00
2022-10-15T01:06:46.945Z,15.00
2022-10-15T01:06:58.691Z,15.00
2022-10-15T01:07:10.373Z,15.00
2022-10-15T01:07:22.245Z,15.00
2022-10-15T01:07:34.157Z,15.00
2022-10-15T01:07:45.882Z,15.00
2022-10-15T01:07:57.550Z,15.00
2022-10-15T01:08:09.384Z,15.00
2022-10-15T01:08:21.095Z,15.00
2022-10-15T01:08:32.806Z,15.00
2022-10-15T01:08:44.599Z,15.00
2022-10-15T01:08:56.495Z,15.00
2022-10-15T01:09:08.180Z,15.00
2022-10-15T01:09:19.901Z,15.00
2022-10-15T01:09:31.820Z,15.00
2022-10-15T01:09:43.594Z,15.00
2022-10-15T01:09:55.287Z,15.00
2022-10-15T01:10:07.442Z,15.00
2022-10-15T01:10:19.283Z,15.00
2022-10-15T01:10:35.766Z,15.00
2022-10-15T01:11:09.890Z,15.00
2022-10-15T01:11:29.324Z,15.00
2022-10-15T01:11:51.092Z,15.00
2022-10-15T01:12:02.807Z,15.10
2022-10-15T01:12:24.125Z,15.10
2022-10-15T01:12:57.647Z,15.10
2022-10-15T01:13:20.121Z,15.10
2022-10-15T01:13:31.798Z,15.10
2022-10-15T01:14:06.299Z,15.10
2022-10-15T01:14:36.611Z,15.10
2022-10-15T01:15:13.491Z,15.10
2022-10-15T01:15:37.378Z,15.10
2022-10-15T01:15:50.374Z,15.10
2022-10-15T01:16:29.740Z,15.10
2022-10-15T01:16:50.099Z,15.10
2022-10-15T01:17:17.854Z,15.10
2022-10-15T01:17:48.601Z,15.10
2022-10-15T01:18:04.296Z,15.10
2022-10-15T01:18:19.606Z,15.10
2022-10-15T01:18:50.412Z,15.10
2022-10-15T01:19:04.600Z,15.10
2022-10-15T01:19:28.892Z,15.10
2022-10-15T01:20:04.705Z,15.00
2022-10-15T01:20:25.482Z,15.00
2022-10-15T01:21:03.842Z,15.00
2022-10-15T01:21:18.308Z,15.00
2022-10-15T01:21:39.508Z,15.00
2022-10-15T01:21:55.050Z,15.00
2022-10-15T01:22:11.011Z,15.00
2022-10-15T01:22:41.590Z,15.00
2022-10-15T01:23:05.048Z,15.00
2022-10-15T01:23:47.288Z,15.00
2022-10-15T01:24:33.097Z,14.90
2022-10-15T01:24:46.054Z,15.00
2022-10-15T01:25:12.570Z,14.90
2022-10-15T01:25:24.287Z,14.90
2022-10-15T01:25:54.363Z,14.90
2022-10-15T01:26:39.238Z,14.90
2022-10-15T01:27:28.372Z,14.90
2022-10-15T01:28:12.394Z,14.90
2022-10-15T01:28:45.472Z,14.90
2022-10-15T01:29:12.585Z,14.90
2022-10-15T01:30:09.094Z,14.90
2022-10-15T01:30:27.286Z,14.90
2022-10-15T01:30:40.081Z,14.90
2022-10-15T01:30:59.972Z,14.90
2022-10-15T01:31:32.944Z,14.80
2022-10-15T01:31:57.226Z,14.80
2022-10-15T01:32:22.357Z,14.90
2022-10-15T01:32:55.773Z,14.90
2022-10-15T01:33:20.716Z,14.90
2022-10-15T01:33:54.041Z,14.90
2022-10-15T01:34:39.191Z,14.80
2022-10-15T01:35:12.729Z,14.80
2022-10-15T01:35:50.317Z,14.80
2022-10-15T01:36:07.783Z,14.80
2022-10-15T01:36:37.932Z,14.80
2022-10-15T01:37:09.638Z,14.80
2022-10-15T01:37:29.052Z,14.80
2022-10-15T01:38:20.952Z,14.80
2022-10-15T01:38:37.642Z,14.80
2022-10-15T01:38:58.590Z,14.80
2022-10-15T01:39:20.550Z,14.80
2022-10-15T01:39:33.630Z,14.80
2022-10-15T01:39:53.818Z,14.80
2022-10-15T01:40:08.436Z,14.80
2022-10-15T01:40:30.142Z,14.80
2022-10-15T01:40:54.794Z,14.80
2022-10-15T01:41:11.272Z,14.80
2022-10-15T01:41:31.697Z,14.80
2022-10-15T01:41:44.335Z,14.80
2022-10-15T01:42:04.202Z,14.80
2022-10-15T01:42:18.605Z,14.80
2022-10-15T01:42:33.778Z,14.80
2022-10-15T01:43:09.869Z,14.80
2022-10-15T01:43:34.458Z,14.80
2022-10-15T01:43:59.602Z,14.80
2022-10-15T01:44:13.286Z,14.80
2022-10-15T01:44:29.600Z,14.70
2022-10-15T01:44:43.549Z,14.70
2022-10-15T01:44:59.238Z,14.70
2022-10-15T01:45:13.135Z,14.70
2022-10-15T01:45:37.185Z,14.70
2022-10-15T01:45:51.467Z,14.70
2022-10-15T01:46:06.667Z,14.70
2022-10-15T01:46:21.077Z,14.70
2022-10-15T01:46:42.937Z,14.70
2022-10-15T01:46:59.097Z,14.70
2022-10-15T01:47:23.012Z,14.70
2022-10-15T01:47:44.164Z,14.70
2022-10-15T01:47:56.769Z,14.70
2022-10-15T01:48:10.174Z,14.70
2022-10-15T01:48:21.953Z,14.70
2022-10-15T01:48:33.611Z,14.70
2022-10-15T01:48:45.390Z,14.70
2022-10-15T01:48:57.068Z,14.70
2022-10-15T01:49:09.137Z,14.70
2022-10-15T01:49:22.067Z,14.70
2022-10-15T01:49:35.432Z,14.70
2022-10-15T01:49:47.117Z,14.70
2022-10-15T01:49:58.806Z,14.70
2022-10-15T01:50:11.614Z,14.70
2022-10-15T01:50:24.582Z,14.70
2022-10-15T01:50:36.720Z,14.70
2022-10-15T01:50:50.884Z,14.70
2022-10-15T01:51:03.549Z,14.70
2022-10-15T01:51:15.323Z,14.70
2022-10-15T01:51:27.099Z,14.80
2022-10-15T01:51:38.829Z,14.70
2022-10-15T01:51:50.794Z,14.80
2022-10-15T01:52:26.785Z,14.80
2022-10-15T01:52:38.840Z,14.70
2022-10-15T01:52:51.590Z,14.70
2022-10-15T01:53:03.313Z,14.70
2022-10-15T01:53:16.198Z,14.70
2022-10-15T01:53:28.424Z,14.70
2022-10-15T01:53:40.150Z,14.70
2022-10-15T01:53:51.846Z,14.70
2022-10-15T01:54:05.882Z,14.70
2022-10-15T01:54:18.591Z,14.70
2022-10-15T01:54:30.303Z,14.70
2022-10-15T01:54:41.980Z,14.70
2022-10-15T01:54:53.699Z,14.70
2022-10-15T01:55:06.931Z,14.70
2022-10-15T01:55:19.500Z,14.70
2022-10-15T01:55:31.218Z,14.70
2022-10-15T01:55:43.180Z,14.70
2022-10-15T01:55:59.079Z,14.70
2022-10-15T01:56:14.337Z,14.60
2022-10-15T01:56:26.094Z,14.60
2022-10-15T01:56:37.784Z,14.60
2022-10-15T01:56:52.204Z,14.70
2022-10-15T01:57:03.922Z,14.60
2022-10-15T01:57:15.726Z,14.70
2022-10-15T01:57:27.553Z,14.60
2022-10-15T01:57:39.426Z,14.60
2022-10-15T01:57:51.106Z,14.60
2022-10-15T01:58:02.942Z,14.70
2022-10-15T01:58:14.642Z,14.60
2022-10-15T01:58:26.496Z,14.60
2022-10-15T01:58:39.923Z,14.60
2022-10-15T01:58:52.605Z,14.60
2022-10-15T01:59:04.502Z,14.60
2022-10-15T01:59:20.569Z,14.60
2022-10-15T01:59:32.433Z,14.60
2022-10-15T01:59:44.268Z,14.60
2022-10-15T01:59:56.065Z,14.60
2022-10-15T02:00:08.302Z,14.60
2022-10-15T02:00:20.639Z,14.60
2022-10-15T02:00:32.467Z,14.60
2022-10-15T02:00:44.243Z,14.60
2022-10-15T02:00:56.134Z,14.60
2022-10-15T02:01:08.133Z,14.60
2022-10-15T02:01:19.916Z,14.60
2022-10-15T02:01:31.788Z,14.60
2022-10-15T02:01:44.093Z,14.60
2022-10-15T02:01:57.925Z,14.60
2022-10-15T02:02:09.958Z,14.60
2022-10-15T02:02:21.940Z,14.50
2022-10-15T02:02:33.832Z,14.60
2022-10-15T02:02:45.490Z,14.50
2022-10-15T02:03:03.782Z,14.60
2022-10-15T02:03:15.504Z,14.60
2022-10-15T02:03:27.388Z,14.60
2022-10-15T02:03:46.780Z,14.60
2022-10-15T02:03:58.545Z,14.50
2022-10-15T02:04:25.809Z,14.60
2022-10-15T02:04:37.511Z,14.60
2022-10-15T02:04:49.177Z,14.60
2022-10-15T02:05:00.857Z,14.60
2022-10-15T02:05:24.410Z,14.60
2022-10-15T02:05:39.876Z,14.60
2022-10-15T02:05:56.263Z,14.50
2022-10-15T02:06:09.858Z,14.50
2022-10-15T02:06:34.635Z,14.60
2022-10-15T02:06:46.522Z,14.50
2022-10-15T02:07:07.032Z,14.60
2022-10-15T02:07:32.062Z,14.60
2022-10-15T02:08:20.574Z,14.50
2022-10-15T02:08:40.151Z,14.60
2022-10-15T02:08:55.954Z,14.60
2022-10-15T02:09:46.382Z,14.50
2022-10-15T02:10:14.767Z,14.60
2022-10-15T02:10:36.040Z,14.60
2022-10-15T02:11:09.299Z,14.50
2022-10-15T02:11:21.058Z,14.50
2022-10-15T02:11:36.970Z,14.50
2022-10-15T02:12:00.941Z,14.50
2022-10-15T02:12:44.815Z,14.50
2022-10-15T02:13:28.664Z,14.50
2022-10-15T02:13:54.163Z,14.50
2022-10-15T02:14:13.339Z,14.40
2022-10-15T02:14:29.571Z,14.40
2022-10-15T02:15:08.040Z,14.40
2022-10-15T02:15:26.695Z,14.40
2022-10-15T02:15:41.258Z,14.40
2022-10-15T02:16:11.495Z,14.40
2022-10-15T02:16:23.101Z,14.40
2022-10-15T02:16:43.954Z,14.40
2022-10-15T02:17:13.541Z,14.40
2022-10-15T02:17:31.756Z,14.40
2022-10-15T02:18:10.464Z,14.40
2022-10-15T02:18:44.954Z,14.40
2022-10-15T02:19:20.340Z,14.40
2022-10-15T02:19:33.396Z,14.40
2022-10-15T02:20:20.987Z,14.40
2022-10-15T02:20:41.479Z,14.40
2022-10-15T02:21:22.955Z,14.40
2022-10-15T02:21:53.460Z,14.40
2022-10-15T02:22:06.884Z,14.40
2022-10-15T02:22:32.206Z,14.30
2022-10-15T02:22:49.390Z,14.40
2022-10-15T02:23:19.085Z,14.40
2022-10-15T02:23:39.159Z,14.40
2022-10-15T02:23:58.204Z,14.40
2022-10-15T02:24:12.191Z,14.40
2022-10-15T02:24:25.836Z,14.40
2022-10-15T02:24:44.307Z,14.40
2022-10-15T02:25:04.757Z,14.40
2022-10-15T02:25:21.302Z,14.40
2022-10-15T02:25:33.266Z,14.40
2022-10-15T02:25:45.037Z,14.40
2022-10-15T02:25:57.462Z,14.40
2022-10-15T02:26:09.373Z,14.40
2022-10-15T02:26:21.186Z,14.40
2022-10-15T02:26:32.944Z,14.40
2022-10-15T02:26:44.774Z,14.40
2022-10-15T02:26:57.433Z,14.40
2022-10-15T02:27:09.194Z,14.40
2022-10-15T02:27:21.068Z,14.40
2022-10-15T02:27:33.189Z,14.40
2022-10-15T02:27:45.185Z,14.40
2022-10-15T02:27:57.117Z,14.40
2022-10-15T02:28:09.147Z,14.40
2022-10-15T02:28:20.899Z,14.40
2022-10-15T02:28:33.193Z,14.30
2022-10-15T02:28:47.015Z,14.40
2022-10-15T02:28:59.575Z,14.40
2022-10-15T02:29:12.718Z,14.40
2022-10-15T02:29:27.020Z,14.30
2022-10-15T02:29:38.838Z,14.40
2022-10-15T02:29:53.277Z,14.30
2022-10-15T02:30:06.878Z,14.40
2022-10-15T02:30:18.736Z,14.40
2022-10-15T02:30:30.454Z,14.40
2022-10-15T02:30:42.386Z,14.40
2022-10-15T02:30:54.242Z,14.40
2022-10-15T02:31:06.161Z,14.40
2022-10-15T02:31:18.049Z,14.40
2022-10-15T02:31:30.414Z,14.40
2022-10-15T02:31:43.283Z,14.40
2022-10-15T02:31:56.039Z,14.40
2022-10-15T02:32:07.802Z,14.40
2022-10-15T02:32:21.156Z,14.40
2022-10-15T02:32:33.080Z,14.40
2022-10-15T02:32:46.995Z,14.30
2022-10-15T02:32:59.604Z,14.40
2022-10-15T02:33:11.325Z,14.40
2022-10-15T02:33:23.267Z,14.40
2022-10-15T02:33:35.086Z,14.40
2022-10-15T02:33:46.907Z,14.30
2022-10-15T02:34:01.173Z,14.30
2022-10-15T02:34:15.568Z,14.40
2022-10-15T02:34:28.989Z,14.30
2022-10-15T02:34:40.716Z,14.40
2022-10-15T02:34:52.513Z,14.30
2022-10-15T02:35:04.580Z,14.30
2022-10-15T02:35:16.234Z,14.30
2022-10-15T02:35:28.022Z,14.30
2022-10-15T02:35:39.784Z,14.30
2022-10-15T02:35:51.510Z,14.30
2022-10-15T02:36:03.329Z,14.30
2022-10-15T02:36:15.144Z,14.30
2022-10-15T02:36:26.882Z,14.30
2022-10-15T02:36:41.819Z,14.30
2022-10-15T02:36:53.502Z,14.30
2022-10-15T02:37:05.780Z,14.30
2022-10-15T02:37:19.172Z,14.30
2022-10-15T02:37:30.888Z,14.30
2022-10-15T02:37:44.503Z,14.30
2022-10-15T02:37:56.265Z,14.30
2022-10-15T02:38:08.235Z,14.30
2022-10-15T02:38:21.020Z,14.30
2022-10-15T02:38:32.924Z,14.30
2022-10-15T02:38:44.895Z,14.30
2022-10-15T02:38:56.883Z,14.30
2022-10-15T02:39:11.040Z,14.30
2022-10-15T02:39:24.320Z,14.30
2022-10-15T02:39:36.046Z,14.30
2022-10-15T02:39:47.766Z,14.30
2022-10-15T02:39:59.529Z,14.30
2022-10-15T02:40:11.239Z,14.30
2022-10-15T02:40:27.212Z,14.30
2022-10-15T02:40:38.886Z,14.30
2022-10-15T02:40:50.592Z,14.30
2022-10-15T02:41:02.406Z,14.30
2022-10-15T02:41:14.203Z,14.20
2022-10-15T02:41:28.222Z,14.30
2022-10-15T02:41:39.947Z,14.30
2022-10-15T02:41:52.432Z,14.30
2022-10-15T02:42:04.338Z,14.30
2022-10-15T02:42:17.001Z,14.30
2022-10-15T02:42:28.682Z,14.30
2022-10-15T02:42:40.406Z,14.20
2022-10-15T02:42:52.145Z,14.30
2022-10-15T02:43:06.939Z,14.20
2022-10-15T02:43:20.110Z,14.30
2022-10-15T02:43:31.831Z,14.30
2022-10-15T02:43:43.554Z,14.30
2022-10-15T02:43:55.325Z,14.20
2022-10-15T02:44:07.069Z,14.20
2022-10-15T02:44:18.770Z,14.30
2022-10-15T02:44:30.598Z,14.30
2022-10-15T02:44:42.323Z,14.20
2022-10-15T02:44:54.043Z,14.20
2022-10-15T02:45:06.304Z,14.30
2022-10-15T02:45:18.027Z,14.30
2022-10-15T02:45:29.842Z,14.30
2022-10-15T02:45:41.749Z,14.20
2022-10-15T02:45:53.423Z,14.20
2022-10-15T02:46:05.133Z,14.20
2022-10-15T02:46:16.828Z,14.30
2022-10-15T02:46:30.099Z,14.30
2022-10-15T02:46:41.784Z,14.30
2022-10-15T02:46:53.599Z,14.20
2022-10-15T02:47:05.415Z,14.30
2022-10-15T02:47:17.226Z,14.30
2022-10-15T02:47:29.027Z,14.20
2022-10-15T02:47:40.720Z,14.30
2022-10-15T02:47:52.478Z,14.30
2022-10-15T02:48:04.986Z,14.30
2022-10-15T02:48:17.049Z,14.30
2022-10-15T02:48:28.832Z,14.20
2022-10-15T02:48:40.505Z,14.20
2022-10-15T02:48:52.202Z,14.20
2022-10-15T02:49:03.992Z,14.20
2022-10-15T02:49:15.677Z,14.20
2022-10-15T02:49:27.352Z,14.20
2022-10-15T02:49:39.140Z,14.20
2022-10-15T02:49:50.842Z,14.20
2022-10-15T02:50:03.985Z,14.20
2022-10-15T02:50:15.827Z,14.20
2022-10-15T02:50:27.489Z,14.20
2022-10-15T02:50:39.177Z,14.20
2022-10-15T02:50:50.910Z,14.20
2022-10-15T02:51:02.781Z,14.20
2022-10-15T02:51:14.510Z,14.20
2022-10-15T02:51:26.198Z,14.20
2022-10-15T02:51:37.857Z,14.20
2022-10-15T02:51:49.548Z,14.20
2022-10-15T02:52:01.200Z,14.20
2022-10-15T02:52:12.879Z,14.20
2022-10-15T02:52:24.971Z,14.20
2022-10-15T02:52:36.929Z,14.20
2022-10-15T02:52:48.589Z,14.20
2022-10-15T02:53:00.843Z,14.20
2022-10-15T02:53:12.527Z,14.10
2022-10-15T02:53:24.198Z,14.20
2022-10-15T02:53:35.931Z,14.20
2022-10-15T02:53:47.601Z,14.20
2022-10-15T02:54:00.473Z,14.10
2022-10-15T02:54:12.295Z,14.10
2022-10-15T02:54:23.927Z,14.10
2022-10-15T02:54:35.626Z,14.10
2022-10-15T02:54:47.314Z,14.10
2022-10-15T02:54:59.011Z,14.10
2022-10-15T02:55:10.810Z,14.10
2022-10-15T02:55:22.656Z,14.10
2022-10-15T02:55:34.338Z,14.10
2022-10-15T02:55:46.955Z,14.10
2022-10-15T02:55:58.640Z,14.10
2022-10-15T02:56:10.417Z,14.10
2022-10-15T02:56:22.227Z,14.10
2022-10-15T02:56:34.409Z,14.10
2022-10-15T02:56:46.142Z,14.10
2022-10-15T02:56:57.828Z,14.10
2022-10-15T02:57:09.528Z,14.20
2022-10-15T02:57:21.435Z,14.10
2022-10-15T02:57:33.314Z,14.10
2022-10-15T02:57:44.973Z,14.10
2022-10-15T02:57:56.668Z,14.10
2022-10-15T02:58:08.386Z,14.10
2022-10-15T02:58:20.106Z,14.10
2022-10-15T02:58:33.045Z,14.10
2022-10-15T02:58:44.762Z,14.10
2022-10-15T02:58:56.466Z,14.10
2022-10-15T02:59:08.189Z,14.10
2022-10-15T02:59:20.318Z,14.10
2022-10-15T02:59:32.023Z,14.10
2022-10-15T02:59:43.728Z,14.10
2022-10-15T02:59:55.478Z,14.10
2022-10-15T03:00:07.957Z,14.10
2022-10-15T03:00:19.706Z,14.10
2022-10-15T03:00:31.625Z,14.10
2022-10-15T03:00:43.326Z,14.10
2022-10-15T03:00:55.379Z,14.10
2022-10-15T03:01:07.293Z,14.10
2022-10-15T03:01:19.278Z,14.10
2022-10-15T03:01:31.230Z,14.10
2022-10-15T03:01:45.106Z,14.10
2022-10-15T03:01:56.805Z,14.10
2022-10-15T03:02:08.529Z,14.10
2022-10-15T03:02:20.303Z,14.10
2022-10-15T03:02:32.008Z,14.10
2022-10-15T03:02:43.854Z,14.10
2022-10-15T03:02:56.202Z,14.10
2022-10-15T03:03:08.122Z,14.10
2022-10-15T03:03:20.036Z,14.00
2022-10-15T03:03:32.005Z,14.10
2022-10-15T03:03:43.763Z,14.10
2022-10-15T03:03:55.422Z,14.10
2022-10-15T03:04:07.293Z,14.10
2022-10-15T03:04:19.066Z,14.10
2022-10-15T03:04:30.847Z,14.10
2022-10-15T03:04:42.540Z,14.10
2022-10-15T03:04:54.214Z,14.00
2022-10-15T03:05:06.068Z,14.00
2022-10-15T03:05:17.764Z,14.00
2022-10-15T03:05:29.486Z,14.00
2022-10-15T03:05:42.808Z,14.00
2022-10-15T03:05:54.525Z,14.00
2022-10-15T03:06:06.586Z,14.00
2022-10-15T03:06:18.249Z,14.00
2022-10-15T03:06:29.905Z,14.00
2022-10-15T03:06:41.638Z,14.00
2022-10-15T03:06:53.633Z,14.00
2022-10-15T03:07:05.377Z,14.00
2022-10-15T03:07:17.040Z,14.00
2022-10-15T03:07:28.710Z,14.00
2022-10-15T03:07:40.407Z,14.00
2022-10-15T03:07:52.391Z,14.00
2022-10-15T03:08:04.277Z,14.00
2022-10-15T03:08:15.941Z,14.00
2022-10-15T03:08:27.611Z,14.00
2022-10-15T03:08:39.354Z,14.00
2022-10-15T03:08:51.336Z,14.00
2022-10-15T03:09:03.392Z,14.00
2022-10-15T03:09:15.269Z,14.00
2022-10-15T03:09:26.924Z,14.00
2022-10-15T03:09:38.697Z,14.10
2022-10-15T03:09:50.356Z,14.10
2022-10-15T03:10:02.041Z,14.10
2022-10-15T03:10:13.719Z,14.10